sensor_id;sensor_type;location;lat;lon;timestamp;pressure;altitude;pressure_sealevel;temperature;humidity
56006;BME280;41888;44.696;10.522;2023-05-03T00:01:15;100945.41;;;12.24;100.00
56006;BME280;41888;44.696;10.522;2023-05-03T00:03:42;100943.97;;;12.28;100.00
56006;BME280;41888;44.696;10.522;2023-05-03T00:06:14;100941.75;;;12.32;100.00
56006;BME280;41888;44.696;10.522;2023-05-03T00:08:41;100941.34;;;12.41;100.00
56006;BME280;41888;44.696;10.522;2023-05-03T00:11:08;100945.03;;;12.47;100.00
56006;BME280;41888;44.696;10.522;2023-05-03T00:13:34;100942.75;;;12.44;100.00
56006;BME280;41888;44.696;10.522;2023-05-03T00:16:01;100935.78;;;12.49;100.00
56006;BME280;41888;44.696;10.522;2023-05-03T00:18:27;100937.66;;;12.42;100.00
56006;BME280;41888;44.696;10.522;2023-05-03T00:20:55;100930.66;;;12.48;100.00
56006;BME280;41888;44.696;10.522;2023-05-03T00:23:22;100933.75;;;12.51;100.00
56006;BME280;41888;44.696;10.522;2023-05-03T00:25:58;100935.78;;;12.43;100.00
56006;BME280;41888;44.696;10.522;2023-05-03T00:28:24;100937.44;;;12.44;100.00
56006;BME280;41888;44.696;10.522;2023-05-03T00:30:52;100933.53;;;12.40;100.00
56006;BME280;41888;44.696;10.522;2023-05-03T00:33:18;100939.28;;;12.37;100.00
56006;BME280;41888;44.696;10.522;2023-05-03T00:35:45;100932.50;;;12.41;100.00
56006;BME280;41888;44.696;10.522;2023-05-03T00:38:11;100931.50;;;12.42;100.00
56006;BME280;41888;44.696;10.522;2023-05-03T00:40:39;100928.00;;;12.41;100.00
56006;BME280;41888;44.696;10.522;2023-05-03T00:43:05;100940.50;;;12.41;100.00
56006;BME280;41888;44.696;10.522;2023-05-03T00:45:33;100931.06;;;12.45;100.00
56006;BME280;41888;44.696;10.522;2023-05-03T00:48:00;100942.16;;;12.42;100.00
56006;BME280;41888;44.696;10.522;2023-05-03T00:50:27;100933.53;;;12.40;100.00
56006;BME280;41888;44.696;10.522;2023-05-03T00:52:54;100936.41;;;12.32;100.00
56006;BME280;41888;44.696;10.522;2023-05-03T00:55:21;100941.97;;;12.37;100.00
56006;BME280;41888;44.696;10.522;2023-05-03T00:57:47;100936.41;;;12.25;100.00
56006;BME280;41888;44.696;10.522;2023-05-03T01:00:14;100935.34;;;12.19;100.00
56006;BME280;41888;44.696;10.522;2023-05-03T01:02:41;100922.84;;;12.20;100.00
56006;BME280;41888;44.696;10.522;2023-05-03T01:05:07;100929.41;;;12.24;100.00
56006;BME280;41888;44.696;10.522;2023-05-03T01:13:05;100929.81;;;12.14;100.00
56006;BME280;41888;44.696;10.522;2023-05-03T01:18:22;100917.69;;;11.99;100.00
56006;BME280;41888;44.696;10.522;2023-05-03T01:20:50;100913.38;;;12.11;100.00
56006;BME280;41888;44.696;10.522;2023-05-03T01:26:13;100915.41;;;12.02;100.00
56006;BME280;41888;44.696;10.522;2023-05-03T01:28:40;100906.78;;;11.94;100.00
56006;BME280;41888;44.696;10.522;2023-05-03T01:31:06;100912.53;;;11.97;100.00
56006;BME280;41888;44.696;10.522;2023-05-03T01:34:01;100914.34;;;11.90;100.00
56006;BME280;41888;44.696;10.522;2023-05-03T01:36:31;100918.72;;;12.04;100.00
56006;BME280;41888;44.696;10.522;2023-05-03T01:39:04;100914.41;;;12.03;100.00
56006;BME280;41888;44.696;10.522;2023-05-03T01:41:33;100916.25;;;12.09;100.00
56006;BME280;41888;44.696;10.522;2023-05-03T01:44:01;100913.78;;;12.08;100.00
56006;BME280;41888;44.696;10.522;2023-05-03T01:46:28;100918.50;;;11.99;100.00
56006;BME280;41888;44.696;10.522;2023-05-03T01:48:54;100916.06;;;12.04;100.00
56006;BME280;41888;44.696;10.522;2023-05-03T01:51:20;100915.03;;;12.05;100.00
56006;BME280;41888;44.696;10.522;2023-05-03T01:53:46;100920.38;;;12.05;100.00
56006;BME280;41888;44.696;10.522;2023-05-03T01:56:13;100919.53;;;11.98;100.00
56006;BME280;41888;44.696;10.522;2023-05-03T01:58:39;100918.28;;;11.94;100.00
56006;BME280;41888;44.696;10.522;2023-05-03T02:01:05;100910.47;;;11.93;100.00
56006;BME280;41888;44.696;10.522;2023-05-03T02:03:33;100912.53;;;11.97;100.00
56006;BME280;41888;44.696;10.522;2023-05-03T02:05:59;100918.09;;;12.02;100.00
56006;BME280;41888;44.696;10.522;2023-05-03T02:08:25;100912.72;;;11.96;100.00
56006;BME280;41888;44.696;10.522;2023-05-03T02:10:51;100920.56;;;12.10;100.00
56006;BME280;41888;44.696;10.522;2023-05-03T02:13:17;100916.66;;;12.00;100.00
56006;BME280;41888;44.696;10.522;2023-05-03T02:15:44;100928.13;;;12.00;100.00
56006;BME280;41888;44.696;10.522;2023-05-03T02:18:10;100920.13;;;11.94;100.00
56006;BME280;41888;44.696;10.522;2023-05-03T02:20:36;100925.88;;;11.97;100.00
56006;BME280;41888;44.696;10.522;2023-05-03T02:23:05;100927.31;;;12.06;100.00
56006;BME280;41888;44.696;10.522;2023-05-03T02:25:32;100922.22;;;12.05;100.00
56006;BME280;41888;44.696;10.522;2023-05-03T02:27:58;100925.06;;;12.16;100.00
56006;BME280;41888;44.696;10.522;2023-05-03T02:30:24;100923.84;;;12.12;100.00
56006;BME280;41888;44.696;10.522;2023-05-03T02:32:50;100920.19;;;12.20;100.00
56006;BME280;41888;44.696;10.522;2023-05-03T02:35:17;100915.03;;;12.12;100.00
56006;BME280;41888;44.696;10.522;2023-05-03T02:37:43;100925.50;;;12.13;100.00
56006;BME280;41888;44.696;10.522;2023-05-03T02:40:09;100915.84;;;12.19;100.00
56006;BME280;41888;44.696;10.522;2023-05-03T02:42:35;100918.72;;;12.17;100.00
56006;BME280;41888;44.696;10.522;2023-05-03T02:45:02;100921.59;;;12.09;100.00
56006;BME280;41888;44.696;10.522;2023-05-03T02:47:28;100924.66;;;12.06;100.00
56006;BME280;41888;44.696;10.522;2023-05-03T02:49:54;100925.47;;;12.07;100.00
56006;BME280;41888;44.696;10.522;2023-05-03T02:52:21;100929.38;;;12.11;100.00
56006;BME280;41888;44.696;10.522;2023-05-03T02:54:47;100924.47;;;12.08;100.00
56006;BME280;41888;44.696;10.522;2023-05-03T02:57:14;100931.44;;;12.09;100.00
56006;BME280;41888;44.696;10.522;2023-05-03T02:59:41;100921.59;;;12.09;100.00
56006;BME280;41888;44.696;10.522;2023-05-03T03:02:07;100927.16;;;12.14;100.00
56006;BME280;41888;44.696;10.522;2023-05-03T03:04:33;100922.00;;;12.13;100.00
56006;BME280;41888;44.696;10.522;2023-05-03T03:06:59;100930.19;;;12.11;100.00
56006;BME280;41888;44.696;10.522;2023-05-03T03:09:25;100930.19;;;12.11;100.00
56006;BME280;41888;44.696;10.522;2023-05-03T03:11:52;100934.94;;;12.09;100.00
56006;BME280;41888;44.696;10.522;2023-05-03T03:14:18;100929.78;;;12.08;100.00
56006;BME280;41888;44.696;10.522;2023-05-03T03:16:45;100930.41;;;12.10;100.00
56006;BME280;41888;44.696;10.522;2023-05-03T03:19:11;100932.69;;;12.19;100.00
56006;BME280;41888;44.696;10.522;2023-05-03T03:21:37;100925.69;;;12.12;100.00
56006;BME280;41888;44.696;10.522;2023-05-03T03:24:04;100937.56;;;12.03;100.00
56006;BME280;41888;44.696;10.522;2023-05-03T03:26:30;100929.38;;;11.98;100.00
56006;BME280;41888;44.696;10.522;2023-05-03T03:28:56;100938.75;;;11.87;100.00
56006;BME280;41888;44.696;10.522;2023-05-03T03:31:22;100941.47;;;11.94;100.00
56006;BME280;41888;44.696;10.522;2023-05-03T03:33:50;100941.22;;;11.95;100.00
56006;BME280;41888;44.696;10.522;2023-05-03T03:36:16;100947.78;;;11.86;100.00
56006;BME280;41888;44.696;10.522;2023-05-03T03:38:43;100948.56;;;11.80;100.00
56006;BME280;41888;44.696;10.522;2023-05-03T03:41:09;100951.50;;;11.92;100.00
56006;BME280;41888;44.696;10.522;2023-05-03T03:43:35;100949.66;;;11.92;100.00
56006;BME280;41888;44.696;10.522;2023-05-03T03:46:01;100953.78;;;11.95;100.00
56006;BME280;41888;44.696;10.522;2023-05-03T03:48:27;100957.47;;;11.94;100.00
56006;BME280;41888;44.696;10.522;2023-05-03T03:50:54;100962.19;;;11.98;100.00
56006;BME280;41888;44.696;10.522;2023-05-03T03:53:20;100957.03;;;11.97;100.00
56006;BME280;41888;44.696;10.522;2023-05-03T03:55:46;100961.38;;;12.11;100.00
56006;BME280;41888;44.696;10.522;2023-05-03T03:58:13;100956.84;;;11.98;100.00
56006;BME280;41888;44.696;10.522;2023-05-03T04:00:39;100957.66;;;11.92;100.00
56006;BME280;41888;44.696;10.522;2023-05-03T04:03:05;100956.84;;;11.98;100.00
56006;BME280;41888;44.696;10.522;2023-05-03T04:05:32;100957.88;;;11.97;100.00
56006;BME280;41888;44.696;10.522;2023-05-03T04:07:58;100960.53;;;11.97;100.00
56006;BME280;41888;44.696;10.522;2023-05-03T04:10:24;100960.34;;;11.99;100.00
56006;BME280;41888;44.696;10.522;2023-05-03T04:12:50;100964.84;;;11.98;100.00
56006;BME280;41888;44.696;10.522;2023-05-03T04:15:16;100973.47;;;11.94;100.00
56006;BME280;41888;44.696;10.522;2023-05-03T04:17:43;100971.78;;;11.86;100.00
56006;BME280;41888;44.696;10.522;2023-05-03T04:20:09;100986.72;;;11.80;100.00
56006;BME280;41888;44.696;10.522;2023-05-03T04:22:36;100978.94;;;11.79;100.00
56006;BME280;41888;44.696;10.522;2023-05-03T04:25:05;100986.72;;;11.80;100.00
56006;BME280;41888;44.696;10.522;2023-05-03T04:27:32;100980.56;;;11.80;100.00
56006;BME280;41888;44.696;10.522;2023-05-03T04:29:58;100981.41;;;11.80;100.00
56006;BME280;41888;44.696;10.522;2023-05-03T04:32:24;100980.19;;;11.83;100.00
56006;BME280;41888;44.696;10.522;2023-05-03T04:34:51;100988.78;;;11.85;100.00
56006;BME280;41888;44.696;10.522;2023-05-03T04:37:19;100985.09;;;11.86;100.00
56006;BME280;41888;44.696;10.522;2023-05-03T04:39:45;100988.59;;;11.87;100.00
56006;BME280;41888;44.696;10.522;2023-05-03T04:42:12;100993.75;;;11.88;100.00
56006;BME280;41888;44.696;10.522;2023-05-03T04:44:43;100994.34;;;11.90;100.00
56006;BME280;41888;44.696;10.522;2023-05-03T04:47:10;101000.50;;;11.91;100.00
56006;BME280;41888;44.696;10.522;2023-05-03T04:49:36;101004.59;;;11.87;100.00
56006;BME280;41888;44.696;10.522;2023-05-03T04:52:04;101004.00;;;11.91;100.00
56006;BME280;41888;44.696;10.522;2023-05-03T04:54:31;101010.34;;;11.90;100.00
56006;BME280;41888;44.696;10.522;2023-05-03T04:56:57;101013.22;;;11.95;100.00
56006;BME280;41888;44.696;10.522;2023-05-03T04:59:23;101019.81;;;11.93;100.00
56006;BME280;41888;44.696;10.522;2023-05-03T05:01:50;101014.06;;;11.89;100.00
56006;BME280;41888;44.696;10.522;2023-05-03T05:04:16;101017.97;;;11.93;100.00
56006;BME280;41888;44.696;10.522;2023-05-03T05:06:42;101013.41;;;11.87;100.00
56006;BME280;41888;44.696;10.522;2023-05-03T05:09:20;101022.06;;;11.89;100.00
56006;BME280;41888;44.696;10.522;2023-05-03T05:11:47;101022.84;;;11.83;100.00
56006;BME280;41888;44.696;10.522;2023-05-03T05:14:13;101025.56;;;11.96;100.00
56006;BME280;41888;44.696;10.522;2023-05-03T05:16:39;101032.31;;;11.92;100.00
56006;BME280;41888;44.696;10.522;2023-05-03T05:19:05;101029.41;;;11.87;100.00
56006;BME280;41888;44.696;10.522;2023-05-03T05:21:32;101033.09;;;11.86;100.00
56006;BME280;41888;44.696;10.522;2023-05-03T05:23:59;101037.22;;;11.89;100.00
56006;BME280;41888;44.696;10.522;2023-05-03T05:26:26;101047.34;;;12.00;100.00
56006;BME280;41888;44.696;10.522;2023-05-03T05:28:53;101043.06;;;12.05;100.00
56006;BME280;41888;44.696;10.522;2023-05-03T05:31:19;101036.66;;;12.00;100.00
56006;BME280;41888;44.696;10.522;2023-05-03T05:33:45;101041.78;;;11.95;100.00
56006;BME280;41888;44.696;10.522;2023-05-03T05:36:12;101050.78;;;11.94;100.00
56006;BME280;41888;44.696;10.522;2023-05-03T05:38:39;101045.22;;;11.95;100.00
56006;BME280;41888;44.696;10.522;2023-05-03T05:41:05;101042.22;;;12.05;100.00
56006;BME280;41888;44.696;10.522;2023-05-03T05:43:31;101052.06;;;12.04;100.00
56006;BME280;41888;44.696;10.522;2023-05-03T05:45:58;101050.97;;;11.92;100.00
56006;BME280;41888;44.696;10.522;2023-05-03T05:48:24;101060.22;;;11.90;100.00
56006;BME280;41888;44.696;10.522;2023-05-03T05:50:50;101052.41;;;11.88;100.00
56006;BME280;41888;44.696;10.522;2023-05-03T05:53:17;101057.97;;;11.93;100.00
56006;BME280;41888;44.696;10.522;2023-05-03T05:55:43;101059.84;;;12.06;100.00
56006;BME280;41888;44.696;10.522;2023-05-03T05:58:09;101054.91;;;12.03;100.00
56006;BME280;41888;44.696;10.522;2023-05-03T06:00:37;101060.66;;;12.06;100.00
56006;BME280;41888;44.696;10.522;2023-05-03T06:03:04;101054.97;;;12.09;100.00
56006;BME280;41888;44.696;10.522;2023-05-03T06:05:30;101059.28;;;12.10;100.00
56006;BME280;41888;44.696;10.522;2023-05-03T06:07:56;101056.78;;;12.09;100.00
56006;BME280;41888;44.696;10.522;2023-05-03T06:10:22;101055.56;;;12.11;100.00
56006;BME280;41888;44.696;10.522;2023-05-03T06:12:49;101057.00;;;12.07;100.00
56006;BME280;41888;44.696;10.522;2023-05-03T06:15:15;101062.59;;;12.19;100.00
56006;BME280;41888;44.696;10.522;2023-05-03T06:17:42;101060.28;;;12.09;100.00
56006;BME280;41888;44.696;10.522;2023-05-03T06:20:09;101063.34;;;12.06;100.00
56006;BME280;41888;44.696;10.522;2023-05-03T06:22:38;101062.13;;;12.09;100.00
56006;BME280;41888;44.696;10.522;2023-05-03T06:25:05;101065.19;;;12.06;100.00
56006;BME280;41888;44.696;10.522;2023-05-03T06:27:32;101063.13;;;12.01;100.00
56006;BME280;41888;44.696;10.522;2023-05-03T06:29:58;101065.41;;;12.11;100.00
56006;BME280;41888;44.696;10.522;2023-05-03T06:32:24;101063.56;;;12.05;100.00
56006;BME280;41888;44.696;10.522;2023-05-03T06:34:50;101073.06;;;12.20;100.00
56006;BME280;41888;44.696;10.522;2023-05-03T06:37:17;101078.75;;;12.11;100.00
56006;BME280;41888;44.696;10.522;2023-05-03T06:39:44;101069.34;;;12.21;100.00
56006;BME280;41888;44.696;10.522;2023-05-03T06:42:10;101079.63;;;12.24;100.00
56006;BME280;41888;44.696;10.522;2023-05-03T06:44:36;101091.16;;;12.32;100.00
56006;BME280;41888;44.696;10.522;2023-05-03T06:47:02;101087.47;;;12.39;100.00
56006;BME280;41888;44.696;10.522;2023-05-03T06:49:29;101089.13;;;12.40;100.00
56006;BME280;41888;44.696;10.522;2023-05-03T06:51:55;101082.56;;;12.43;100.00
56006;BME280;41888;44.696;10.522;2023-05-03T06:54:21;101094.06;;;12.43;100.00
56006;BME280;41888;44.696;10.522;2023-05-03T06:56:47;101096.13;;;12.48;100.00
56006;BME280;41888;44.696;10.522;2023-05-03T06:59:13;101088.34;;;12.53;100.00
56006;BME280;41888;44.696;10.522;2023-05-03T07:01:39;101095.72;;;12.44;100.00
56006;BME280;41888;44.696;10.522;2023-05-03T07:04:05;101093.88;;;12.51;100.00
56006;BME280;41888;44.696;10.522;2023-05-03T07:06:32;101095.75;;;12.64;100.00
56006;BME280;41888;44.696;10.522;2023-05-03T07:08:58;101098.25;;;12.72;100.00
56006;BME280;41888;44.696;10.522;2023-05-03T07:11:24;101102.97;;;12.70;100.00
56006;BME280;41888;44.696;10.522;2023-05-03T07:13:51;101100.91;;;12.72;100.00
56006;BME280;41888;44.696;10.522;2023-05-03T07:16:18;101106.06;;;12.87;100.00
56006;BME280;41888;44.696;10.522;2023-05-03T07:18:45;101101.59;;;12.94;100.00
56006;BME280;41888;44.696;10.522;2023-05-03T07:21:12;101102.19;;;12.89;100.00
56006;BME280;41888;44.696;10.522;2023-05-03T07:23:39;101107.75;;;12.94;100.00
56006;BME280;41888;44.696;10.522;2023-05-03T07:26:05;101102.38;;;13.01;100.00
56006;BME280;41888;44.696;10.522;2023-05-03T07:28:32;101097.88;;;13.01;100.00
56006;BME280;41888;44.696;10.522;2023-05-03T07:30:58;101094.38;;;13.01;100.00
56006;BME280;41888;44.696;10.522;2023-05-03T07:33:25;101105.28;;;12.99;100.00
56006;BME280;41888;44.696;10.522;2023-05-03T07:35:51;101103.66;;;13.11;100.00
56006;BME280;41888;44.696;10.522;2023-05-03T07:38:17;101102.47;;;13.21;100.00
56006;BME280;41888;44.696;10.522;2023-05-03T07:40:44;101096.47;;;13.19;100.00
56006;BME280;41888;44.696;10.522;2023-05-03T07:43:10;101111.06;;;13.23;100.00
56006;BME280;41888;44.696;10.522;2023-05-03T07:45:37;101109.84;;;13.19;100.00
56006;BME280;41888;44.696;10.522;2023-05-03T07:48:03;101106.16;;;13.20;100.00
56006;BME280;41888;44.696;10.522;2023-05-03T07:50:30;101109.84;;;13.25;100.00
56006;BME280;41888;44.696;10.522;2023-05-03T07:52:57;101107.78;;;13.27;100.00
56006;BME280;41888;44.696;10.522;2023-05-03T07:55:23;101109.03;;;13.31;100.00
56006;BME280;41888;44.696;10.522;2023-05-03T07:57:53;101101.63;;;13.20;100.00
56006;BME280;41888;44.696;10.522;2023-05-03T08:00:24;101108.59;;;13.28;100.00
56006;BME280;41888;44.696;10.522;2023-05-03T08:02:51;101116.00;;;13.39;100.00
56006;BME280;41888;44.696;10.522;2023-05-03T08:05:17;101114.16;;;13.39;100.00
56006;BME280;41888;44.696;10.522;2023-05-03T08:07:44;101110.25;;;13.42;100.00
56006;BME280;41888;44.696;10.522;2023-05-03T08:10:10;101110.22;;;13.55;100.00
56006;BME280;41888;44.696;10.522;2023-05-03T08:12:37;101114.13;;;13.72;100.00
56006;BME280;41888;44.696;10.522;2023-05-03T08:15:04;101115.16;;;13.78;100.00
56006;BME280;41888;44.696;10.522;2023-05-03T08:17:33;101106.28;;;13.84;100.00
56006;BME280;41888;44.696;10.522;2023-05-03T08:20:05;101104.25;;;13.79;100.00
56006;BME280;41888;44.696;10.522;2023-05-03T08:22:32;101108.72;;;13.85;100.00
56006;BME280;41888;44.696;10.522;2023-05-03T08:25:00;101111.63;;;13.90;100.00
56006;BME280;41888;44.696;10.522;2023-05-03T08:27:26;101109.91;;;14.16;100.00
56006;BME280;41888;44.696;10.522;2023-05-03T08:29:53;101109.06;;;14.15;100.00
56006;BME280;41888;44.696;10.522;2023-05-03T08:32:19;101112.31;;;14.30;100.00
56006;BME280;41888;44.696;10.522;2023-05-03T08:34:46;101113.50;;;14.48;100.00
56006;BME280;41888;44.696;10.522;2023-05-03T08:37:12;101115.81;;;14.31;100.00
56006;BME280;41888;44.696;10.522;2023-05-03T08:39:38;101112.69;;;14.34;100.00
56006;BME280;41888;44.696;10.522;2023-05-03T08:42:08;101107.88;;;14.56;100.00
56006;BME280;41888;44.696;10.522;2023-05-03T08:44:45;101116.41;;;14.77;100.00
56006;BME280;41888;44.696;10.522;2023-05-03T08:47:16;101118.97;;;14.97;100.00
56006;BME280;41888;44.696;10.522;2023-05-03T08:49:44;101117.59;;;14.88;100.00
56006;BME280;41888;44.696;10.522;2023-05-03T08:52:13;101121.44;;;14.99;100.00
56006;BME280;41888;44.696;10.522;2023-05-03T08:54:41;101124.91;;;15.06;100.00
56006;BME280;41888;44.696;10.522;2023-05-03T08:57:13;101129.91;;;15.27;100.00
56006;BME280;41888;44.696;10.522;2023-05-03T08:59:50;101120.63;;;15.23;100.00
56006;BME280;41888;44.696;10.522;2023-05-03T09:02:18;101119.91;;;15.34;100.00
56006;BME280;41888;44.696;10.522;2023-05-03T09:04:45;101121.66;;;15.53;100.00
56006;BME280;41888;44.696;10.522;2023-05-03T09:07:11;101126.88;;;15.67;100.00
56006;BME280;41888;44.696;10.522;2023-05-03T09:09:38;101128.25;;;15.94;100.00
56006;BME280;41888;44.696;10.522;2023-05-03T09:12:05;101126.69;;;15.86;100.00
56006;BME280;41888;44.696;10.522;2023-05-03T09:14:40;101123.25;;;15.97;100.00
56006;BME280;41888;44.696;10.522;2023-05-03T09:17:17;101115.44;;;16.32;100.00
56006;BME280;41888;44.696;10.522;2023-05-03T09:19:53;101116.84;;;16.83;100.00
56006;BME280;41888;44.696;10.522;2023-05-03T09:22:27;101125.31;;;17.10;100.00
56006;BME280;41888;44.696;10.522;2023-05-03T09:24:55;101127.03;;;17.34;100.00
56006;BME280;41888;44.696;10.522;2023-05-03T09:27:23;101124.78;;;17.43;100.00
56006;BME280;41888;44.696;10.522;2023-05-03T09:29:49;101118.22;;;17.27;100.00
56006;BME280;41888;44.696;10.522;2023-05-03T09:32:16;101119.59;;;17.71;100.00
56006;BME280;41888;44.696;10.522;2023-05-03T09:34:43;101127.84;;;18.04;100.00
56006;BME280;41888;44.696;10.522;2023-05-03T09:37:11;101116.94;;;18.11;100.00
56006;BME280;41888;44.696;10.522;2023-05-03T09:39:40;101121.59;;;18.27;100.00
56006;BME280;41888;44.696;10.522;2023-05-03T09:42:15;101125.94;;;18.17;100.00
56006;BME280;41888;44.696;10.522;2023-05-03T09:44:48;101126.31;;;18.08;100.00
56006;BME280;41888;44.696;10.522;2023-05-03T09:47:16;101126.75;;;18.29;100.00
56006;BME280;41888;44.696;10.522;2023-05-03T09:49:47;101122.97;;;18.30;100.00
56006;BME280;41888;44.696;10.522;2023-05-03T09:52:13;101117.47;;;18.36;100.00
56006;BME280;41888;44.696;10.522;2023-05-03T09:54:39;101118.06;;;18.27;100.00
56006;BME280;41888;44.696;10.522;2023-05-03T09:57:07;101111.03;;;18.37;100.00
56006;BME280;41888;44.696;10.522;2023-05-03T09:59:35;101111.59;;;18.39;100.00
56006;BME280;41888;44.696;10.522;2023-05-03T10:02:03;101118.94;;;18.04;100.00
56006;BME280;41888;44.696;10.522;2023-05-03T10:04:49;101112.19;;;17.90;100.00
56006;BME280;41888;44.696;10.522;2023-05-03T10:07:17;101103.88;;;17.68;100.00
56006;BME280;41888;44.696;10.522;2023-05-03T10:09:46;101103.75;;;17.51;100.00
56006;BME280;41888;44.696;10.522;2023-05-03T10:12:13;101096.38;;;17.47;100.00
56006;BME280;41888;44.696;10.522;2023-05-03T10:14:46;101108.22;;;17.69;100.00
56006;BME280;41888;44.696;10.522;2023-05-03T10:17:17;101109.72;;;17.88;100.00
56006;BME280;41888;44.696;10.522;2023-05-03T10:22:26;101103.06;;;17.79;100.00
56006;BME280;41888;44.696;10.522;2023-05-03T10:25:07;101097.88;;;18.12;100.00
56006;BME280;41888;44.696;10.522;2023-05-03T10:30:39;101095.22;;;17.89;100.00
56006;BME280;41888;44.696;10.522;2023-05-03T10:35:51;101089.00;;;18.69;100.00
56006;BME280;41888;44.696;10.522;2023-05-03T10:38:20;101085.63;;;19.07;100.00
56006;BME280;41888;44.696;10.522;2023-05-03T10:40:47;101087.44;;;19.18;100.00
56006;BME280;41888;44.696;10.522;2023-05-03T10:43:40;101080.72;;;19.37;100.00
56006;BME280;41888;44.696;10.522;2023-05-03T10:46:29;101086.06;;;19.49;100.00
56006;BME280;41888;44.696;10.522;2023-05-03T10:49:28;101082.44;;;19.43;100.00
56006;BME280;41888;44.696;10.522;2023-05-03T10:51:54;101083.13;;;19.50;100.00
56006;BME280;41888;44.696;10.522;2023-05-03T10:54:20;101075.47;;;18.80;100.00
56006;BME280;41888;44.696;10.522;2023-05-03T10:56:54;101064.19;;;18.83;100.00
56006;BME280;41888;44.696;10.522;2023-05-03T10:59:22;101062.81;;;19.14;100.00
56006;BME280;41888;44.696;10.522;2023-05-03T11:01:50;101069.59;;;19.17;100.00
56006;BME280;41888;44.696;10.522;2023-05-03T11:04:34;101062.81;;;19.31;100.00
56006;BME280;41888;44.696;10.522;2023-05-03T11:07:01;101064.16;;;19.45;100.00
56006;BME280;41888;44.696;10.522;2023-05-03T11:09:32;101051.19;;;19.30;100.00
56006;BME280;41888;44.696;10.522;2023-05-03T11:12:02;101043.78;;;19.04;100.00
56006;BME280;41888;44.696;10.522;2023-05-03T11:14:28;101051.03;;;19.37;100.00
56006;BME280;41888;44.696;10.522;2023-05-03T11:16:54;101044.13;;;19.63;100.00
56006;BME280;41888;44.696;10.522;2023-05-03T11:19:22;101047.16;;;20.10;100.00
56006;BME280;41888;44.696;10.522;2023-05-03T11:21:50;101043.22;;;20.17;100.00
56006;BME280;41888;44.696;10.522;2023-05-03T11:24:16;101043.03;;;20.24;100.00
56006;BME280;41888;44.696;10.522;2023-05-03T11:26:42;101038.09;;;20.43;94.79
56006;BME280;41888;44.696;10.522;2023-05-03T11:29:09;101046.53;;;19.59;94.31
56006;BME280;41888;44.696;10.522;2023-05-03T11:31:36;101037.63;;;19.25;93.06
56006;BME280;41888;44.696;10.522;2023-05-03T11:34:02;101042.94;;;19.37;93.62
56006;BME280;41888;44.696;10.522;2023-05-03T11:36:30;101044.16;;;19.46;92.64
56006;BME280;41888;44.696;10.522;2023-05-03T11:38:56;101038.28;;;18.66;97.77
56006;BME280;41888;44.696;10.522;2023-05-03T11:41:22;101031.81;;;18.67;100.00
56006;BME280;41888;44.696;10.522;2023-05-03T11:43:49;101041.81;;;18.99;98.86
56006;BME280;41888;44.696;10.522;2023-05-03T11:46:19;101036.13;;;18.23;100.00
56006;BME280;41888;44.696;10.522;2023-05-03T11:48:48;101034.31;;;19.02;99.14
56006;BME280;41888;44.696;10.522;2023-05-03T11:51:14;101039.00;;;19.83;98.25
56006;BME280;41888;44.696;10.522;2023-05-03T11:53:41;101024.88;;;19.76;95.00
56006;BME280;41888;44.696;10.522;2023-05-03T11:56:13;101036.06;;;19.46;98.00
56006;BME280;41888;44.696;10.522;2023-05-03T11:58:51;101025.72;;;18.71;97.71
56006;BME280;41888;44.696;10.522;2023-05-03T12:01:19;101026.13;;;18.80;98.97
56006;BME280;41888;44.696;10.522;2023-05-03T12:03:47;101026.50;;;18.72;97.74
56006;BME280;41888;44.696;10.522;2023-05-03T12:06:15;101025.63;;;18.66;95.82
56006;BME280;41888;44.696;10.522;2023-05-03T12:08:42;101024.72;;;18.94;93.45
56006;BME280;41888;44.696;10.522;2023-05-03T12:11:09;101023.00;;;19.05;94.65
56006;BME280;41888;44.696;10.522;2023-05-03T12:13:36;101015.72;;;18.72;94.33
56006;BME280;41888;44.696;10.522;2023-05-03T12:16:04;101025.56;;;18.94;91.60
56006;BME280;41888;44.696;10.522;2023-05-03T12:21:16;101017.00;;;18.97;91.99
56006;BME280;41888;44.696;10.522;2023-05-03T12:23:42;101015.72;;;19.22;89.69
56006;BME280;41888;44.696;10.522;2023-05-03T12:26:09;101015.56;;;19.28;86.45
56006;BME280;41888;44.696;10.522;2023-05-03T12:28:35;101010.09;;;18.56;88.14
56006;BME280;41888;44.696;10.522;2023-05-03T12:31:02;101013.53;;;19.19;92.11
56006;BME280;41888;44.696;10.522;2023-05-03T12:33:29;101014.72;;;19.61;87.68
56006;BME280;41888;44.696;10.522;2023-05-03T12:35:55;101019.09;;;19.46;83.57
56006;BME280;41888;44.696;10.522;2023-05-03T12:38:23;101016.31;;;19.24;85.11
56006;BME280;41888;44.696;10.522;2023-05-03T12:40:49;101008.97;;;19.58;83.81
56006;BME280;41888;44.696;10.522;2023-05-03T12:43:15;101005.97;;;19.98;82.66
56006;BME280;41888;44.696;10.522;2023-05-03T12:45:42;101003.75;;;19.95;82.88
56006;BME280;41888;44.696;10.522;2023-05-03T12:48:08;101001.34;;;19.71;85.17
56006;BME280;41888;44.696;10.522;2023-05-03T12:50:35;101006.41;;;19.68;88.31
56006;BME280;41888;44.696;10.522;2023-05-03T12:53:01;101003.88;;;19.23;85.43
56006;BME280;41888;44.696;10.522;2023-05-03T12:55:27;100999.81;;;19.04;90.71